Time;durP1;ratioP1;P1;durP2;ratioP2;P2;SDS_P1;SDS_P2;PMS_P1;PMS_P2;Temp;Humidity;BMP_temperature;BMP_pressure;BME280_temperature;BME280_humidity;BME280_pressure;Samples;Min_cycle;Max_cycle;Signal;HPM_P1;HPM_P2
2022/11/21 00:00:27;;;;;;;3.80;3.30;;;;;;;14.63;100.00;-18169.22;5093027;28;20184;-59
2022/11/21 00:02:54;;;;;;;3.00;2.90;;;;;;;14.64;100.00;-18169.59;5094125;28;20207;-59
2022/11/21 00:05:21;;;;;;;2.87;2.70;;;;;;;14.59;100.00;-18168.28;5094388;28;20194;-59
2022/11/21 00:07:48;;;;;;;4.03;3.67;;;;;;;14.48;100.00;-18165.75;5094108;28;20271;-59
2022/11/21 00:10:16;;;;;;;5.17;3.50;;;;;;;14.60;100.00;-18168.63;5094063;28;20207;-60
2022/11/21 00:12:43;;;;;;;4.10;3.80;;;;;;;14.60;100.00;-18168.63;5094205;28;20240;-60
2022/11/21 00:15:11;;;;;;;3.60;3.30;;;;;;;14.59;100.00;-18168.41;5094463;28;20188;-59
2022/11/21 00:17:39;;;;;;;3.40;3.20;;;;;;;14.55;100.00;-18167.44;5094172;28;20245;-60
2022/11/21 00:20:07;;;;;;;4.23;3.10;;;;;;;14.60;100.00;-18168.50;5094211;28;20188;-59
2022/11/21 00:22:34;;;;;;;3.97;3.57;;;;;;;14.69;100.00;-18170.56;5093756;28;20223;-60
2022/11/21 00:25:01;;;;;;;3.77;3.43;;;;;;;14.75;100.00;-18172.00;5093776;28;20220;-60
2022/11/21 00:27:30;;;;;;;4.23;3.83;;;;;;;14.78;100.00;-18172.84;5093628;28;20190;-60
2022/11/21 00:29:56;;;;;;;4.53;4.13;;;;;;;14.71;100.00;-18171.16;5093667;28;20190;-60
2022/11/21 00:32:23;;;;;;;4.20;4.00;;;;;;;14.85;100.00;-18174.53;5093591;28;20591;-59
2022/11/21 00:34:52;;;;;;;3.90;3.50;;;;;;;14.84;100.00;-18174.16;5093481;28;20215;-60
2022/11/21 00:37:18;;;;;;;4.43;3.27;;;;;;;14.72;100.00;-18171.41;5093446;28;20219;-60
2022/11/21 00:39:45;;;;;;;4.77;3.97;;;;;;;14.75;100.00;-18172.13;5093439;28;20195;-60
2022/11/21 00:42:12;;;;;;;6.23;3.90;;;;;;;14.88;100.00;-18175.25;5093689;28;20662;-59
2022/11/21 00:44:39;;;;;;;4.80;3.80;;;;;;;14.92;100.00;-18176.19;5093588;28;20555;-59
2022/11/21 00:47:06;;;;;;;4.27;3.80;;;;;;;14.95;100.00;-18174.94;5093628;28;20558;-60
2022/11/21 00:49:33;;;;;;;8.30;4.17;;;;;;;15.01;100.00;-18176.50;5093492;28;20570;-59
2022/11/21 00:52:01;;;;;;;8.47;4.30;;;;;;;15.08;100.00;-17857.97;5092224;28;20187;-60
2022/11/21 00:54:28;;;;;;;4.50;3.93;;;;;;;15.21;100.00;-17860.91;5092794;28;20184;-60
2022/11/21 00:56:55;;;;;;;9.37;5.00;;;;;;;15.22;100.00;-17220.88;5093151;28;20194;-59
2022/11/21 00:59:22;;;;;;;10.80;3.63;;;;;;;15.34;100.00;-16903.19;5092956;28;20190;-60
2022/11/21 01:01:49;;;;;;;10.03;4.13;;;;;;;15.45;100.00;-16585.31;5092945;28;20184;-59
2022/11/21 01:04:16;;;;;;;11.97;4.43;;;;;;;15.59;100.00;-14985.44;5092871;28;20208;-59
2022/11/21 01:06:43;;;;;;;9.23;4.27;;;;;;;15.71;100.00;-15949.53;5092840;28;20188;-59
2022/11/21 01:09:11;;;;;;;7.23;4.00;;;;;;;15.71;100.00;-16911.28;5091619;28;20187;-59
2022/11/21 01:11:38;;;;;;;4.50;3.73;;;;;;;15.77;100.00;-17553.63;5093416;28;20279;-60
2022/11/21 01:14:05;;;;;;;8.57;4.83;;;;;;;15.87;100.00;-18196.78;5092725;28;20184;-60
2022/11/21 01:16:32;;;;;;;15.77;4.80;;;;;;;15.99;100.00;-18201.66;5092695;28;20189;-60
2022/11/21 01:18:59;;;;;;;7.63;5.37;;;;;;;16.03;100.00;-18202.38;5092520;28;20188;-59
2022/11/21 01:21:29;;;;;;;11.10;5.20;;;;;;;16.12;100.00;-18204.66;5092604;28;20180;-59
2022/11/21 01:23:59;;;;;;;17.57;5.50;;;;;;;16.23;100.00;-18207.16;5092499;28;20208;-60
2022/11/21 01:26:29;;;;;;;14.83;5.03;;;;;;;16.21;100.00;-18206.69;5092846;28;20211;-60
2022/11/21 01:28:57;;;;;;;13.80;5.80;;;;;;;16.24;100.00;-18207.41;5092821;28;20184;-60
2022/11/21 01:31:26;;;;;;;7.77;4.73;;;;;;;16.19;100.00;-18206.22;5092512;28;20191;-59
2022/11/21 01:33:54;;;;;;;14.00;5.47;;;;;;;16.23;100.00;-18207.16;5092116;28;20254;-59
2022/11/21 01:36:23;;;;;;;11.47;5.17;;;;;;;16.30;100.00;-18208.97;5092435;28;20246;-60
2022/11/21 01:38:52;;;;;;;16.37;5.70;;;;;;;16.23;100.00;-18207.28;5092279;28;20202;-59
2022/11/21 01:41:21;;;;;;;9.80;6.00;;;;;;;16.02;100.00;-18202.25;5092551;28;20187;-59
2022/11/21 01:43:50;;;;;;;8.40;5.40;;;;;;;15.99;100.00;-18201.66;5092181;28;20235;-60
2022/11/21 01:46:19;;;;;;;11.47;5.13;;;;;;;15.91;100.00;-18199.72;5092151;28;20195;-60
2022/11/21 01:48:51;;;;;;;11.00;5.57;;;;;;;15.84;100.00;-18198.06;5092093;28;20224;-59
2022/11/21 01:51:23;;;;;;;12.63;5.83;;;;;;;15.87;100.00;-18198.66;5092081;28;20195;-59
2022/11/21 01:53:55;;;;;;;7.83;5.97;;;;;;;15.77;100.00;-18196.38;5092466;28;20693;-59
2022/11/21 01:56:23;;;;;;;9.87;6.43;;;;;;;15.87;100.00;-18198.78;5092101;28;20184;-60
2022/11/21 01:58:53;;;;;;;7.47;6.30;;;;;;;15.83;100.00;-18197.69;5092046;28;20188;-60
2022/11/21 02:01:20;;;;;;;10.80;6.20;;;;;;;15.83;100.00;-18197.81;5091985;28;20188;-61
2022/11/21 02:03:48;;;;;;;9.17;5.57;;;;;;;15.77;100.00;-18196.38;5091936;28;20208;-60
2022/11/21 02:06:15;;;;;;;17.93;6.70;;;;;;;15.91;100.00;-18197.75;5091539;28;20656;-60
2022/11/21 02:08:44;;;;;;;14.13;6.03;;;;;;;15.98;100.00;-18199.41;5091582;28;20574;-59
2022/11/21 02:11:18;;;;;;;14.40;6.33;;;;;;;15.98;100.00;-18199.53;5092164;28;20210;-59
2022/11/21 02:13:45;;;;;;;18.53;6.60;;;;;;;16.13;100.00;-17882.28;5091783;28;20191;-59
2022/11/21 02:16:14;;;;;;;20.43;6.50;;;;;;;16.29;100.00;-17886.16;5091756;28;20188;-59
2022/11/21 02:18:41;;;;;;;16.07;6.47;;;;;;;16.40;100.00;-17888.63;5091980;28;20183;-60
2022/11/21 02:21:16;;;;;;;12.33;6.10;;;;;;;16.42;100.00;-18211.84;5091772;28;20184;-60
2022/11/21 02:23:51;;;;;;;17.67;6.53;;;;;;;16.60;100.00;-18215.91;5091967;28;20203;-60
2022/11/21 02:26:19;;;;;;;24.37;6.33;;;;;;;16.72;100.00;-18218.91;5091998;28;20194;-59
2022/11/21 02:28:46;;;;;;;15.07;6.13;;;;;;;16.84;100.00;-16614.75;5091724;28;20184;-59
2022/11/21 02:31:13;;;;;;;17.47;6.53;;;;;;;16.73;100.00;-12435.94;5091887;28;20184;-60
2022/11/21 02:33:40;;;;;;;15.03;5.60;;;;;;;17.08;100.00;-7934.75;5091523;28;20224;-58
2022/11/21 02:36:33;;;;;;;24.47;5.97;;;;;;;17.24;100.00;-2454.34;5091598;28;20188;-59
2022/11/21 02:39:00;;;;;;;12.40;5.27;;;;;;;17.34;100.00;1098.19;5091916;28;20627;-59
2022/11/21 02:41:30;;;;;;;17.27;5.13;;;;;;;17.45;100.00;10160.41;5091836;28;20188;-60
2022/11/21 02:44:04;;;;;;;21.40;6.27;;;;;;;17.45;100.00;12753.94;5091412;28;20304;-60
2022/11/21 02:46:31;;;;;;;22.47;6.10;;;;;;;17.66;100.00;15680.63;5091782;28;20583;-59
2022/11/21 02:48:59;;;;;;;20.47;5.70;;;;;;;17.54;100.00;18600.13;5091854;28;20705;-59
2022/11/21 02:51:26;;;;;;;19.30;5.20;;;;;;;17.67;100.00;19254.84;5091580;28;20195;-59
2022/11/21 02:53:52;;;;;;;20.87;5.90;;;;;;;17.75;100.00;23487.00;5091380;28;20187;-60
2022/11/21 02:56:19;;;;;;;24.90;6.23;;;;;;;17.78;100.00;28700.88;5091397;28;20216;-60
2022/11/21 02:58:48;;;;;;;30.60;6.20;;;;;;;17.78;100.00;31963.31;5091338;28;20249;-59
2022/11/21 03:01:15;;;;;;;19.30;6.43;;;;;;;17.89;100.00;33601.59;5091650;28;20291;-60
2022/11/21 03:03:42;;;;;;;14.73;5.93;;;;;;;17.83;100.00;34577.81;5090311;28;20230;-60
2022/11/21 03:06:09;;;;;;;26.67;6.40;;;;;;;17.96;100.00;33279.50;5091667;28;20184;-60
2022/11/21 03:08:35;;;;;;;20.63;5.23;;;;;;;17.92;100.00;37198.31;5091535;28;20188;-60
2022/11/21 03:11:02;;;;;;;34.70;7.13;;;;;;;17.74;100.00;33593.19;5091615;28;20238;-59
2022/11/21 03:13:29;;;;;;;16.63;6.37;;;;;;;17.79;100.00;36863.19;5091380;28;20181;-60
2022/11/21 03:15:59;;;;;;;32.07;6.50;;;;;;;17.77;100.00;35881.47;5091345;28;20184;-60
2022/11/21 03:18:26;;;;;;;24.33;7.03;;;;;;;17.82;100.00;40462.34;5092625;28;20191;-61
2022/11/21 03:20:53;;;;;;;27.93;7.07;;;;;;;17.86;100.00;44722.09;5094857;28;20184;-59
2022/11/21 03:23:20;;;;;;;27.07;6.73;;;;;;;17.89;100.00;50955.56;5094833;28;20204;-59
2022/11/21 03:25:47;;;;;;;29.33;7.23;;;;;;;17.85;100.00;54565.25;5095150;28;20615;-60
2022/11/21 03:28:14;;;;;;;30.93;7.53;;;;;;;17.94;100.00;52930.84;5094730;28;20241;-59
2022/11/21 03:30:41;;;;;;;33.73;7.00;;;;;;;17.86;100.00;49968.28;5094990;28;20210;-58
2022/11/21 03:33:09;;;;;;;33.10;7.27;;;;;;;17.82;100.00;47668.97;5094596;28;20228;-59
2022/11/21 03:35:36;;;;;;;33.30;7.97;;;;;;;17.85;100.00;48327.00;5094627;28;20220;-59
2022/11/21 03:38:03;;;;;;;30.10;7.37;;;;;;;17.84;100.00;48326.56;5095024;28;20681;-59
2022/11/21 03:40:30;;;;;;;27.77;7.47;;;;;;;17.89;100.00;54240.41;5094843;28;20569;-60
2022/11/21 03:42:57;;;;;;;33.93;8.00;;;;;;;17.97;100.00;55891.03;5094886;28;20554;-60
2022/11/21 03:45:24;;;;;;;38.07;7.60;;;;;;;17.99;100.00;59841.50;5094687;28;20208;-59
2022/11/21 03:47:51;;;;;;;48.73;8.53;;;;;;;18.01;100.00;63136.69;5094382;28;20210;-59
2022/11/21 03:50:20;;;;;;;29.47;6.80;;;;;;;18.10;100.00;64465.00;5094321;28;20184;-59
2022/11/21 03:52:47;;;;;;;38.17;7.20;;;;;;;17.96;100.00;68737.28;5094306;28;20275;-60
2022/11/21 03:55:14;;;;;;;27.27;7.13;;;;;;;18.05;100.00;65118.88;5094276;28;20185;-60
2022/11/21 03:57:41;;;;;;;33.13;7.77;;;;;;;18.10;100.00;64794.72;5094477;28;20192;-60
2022/11/21 04:00:09;;;;;;;37.17;7.70;;;;;;;18.11;100.00;67764.75;5094529;28;20292;-59
2022/11/21 04:02:36;;;;;;;24.30;7.00;;;;;;;18.11;100.00;73710.97;5094370;28;20627;-59
2022/11/21 04:05:03;;;;;;;29.43;6.40;;;;;;;18.12;100.00;84307.25;5094028;28;20200;-59
2022/11/21 04:07:31;;;;;;;36.27;8.13;;;;;;;18.16;100.00;88627.06;5094237;28;20185;-59
2022/11/21 04:09:58;;;;;;;34.50;8.20;;;;;;;18.22;100.00;90630.00;5094279;28;20188;-59
2022/11/21 04:12:25;;;;;;;31.60;7.20;;;;;;;18.19;100.00;90624.63;5093906;28;20192;-60
2022/11/21 04:14:52;;;;;;;40.07;7.67;;;;;;;18.18;100.00;91952.38;5093874;28;20180;-59
2022/11/21 04:17:19;;;;;;;38.90;8.13;;;;;;;18.17;100.00;94278.28;5093802;28;20270;-60
2022/11/21 04:19:46;;;;;;;29.30;7.17;;;;;;;18.15;100.00;93609.97;5093734;28;20189;-59
2022/11/21 04:22:13;;;;;;;39.13;6.93;;;;;;;18.14;100.00;94938.75;5094055;28;20206;-60
2022/11/21 04:24:41;;;;;;;32.07;7.27;;;;;;;18.12;100.00;94602.91;5093874;28;20226;-59
2022/11/21 04:27:08;;;;;;;39.83;7.60;;;;;;;18.06;100.00;94261.50;5093716;28;20188;-58
2022/11/21 04:29:35;;;;;;;35.40;7.20;;;;;;;18.03;100.00;91928.97;5092627;28;20279;-60
2022/11/21 04:32:01;;;;;;;29.57;7.47;;;;;;;18.10;100.00;94267.09;5093757;28;20554;-58
2022/11/21 04:34:28;;;;;;;30.00;7.17;;;;;;;18.12;100.00;95933.59;5093794;28;20532;-59
2022/11/21 04:36:55;;;;;;;23.73;7.20;;;;;;;18.08;100.00;93598.81;5093484;28;20188;-59
2022/11/21 04:39:22;;;;;;;30.63;7.53;;;;;;;18.13;100.00;98932.06;5093375;28;20179;-59
2022/11/21 04:41:51;;;;;;;39.53;7.77;;;;;;;18.16;100.00;99602.44;5093631;28;20266;-60
2022/11/21 04:44:17;;;;;;;31.77;7.37;;;;;;;18.14;100.00;92610.94;5093226;28;20208;-59
2022/11/21 04:46:44;;;;;;;36.63;7.00;;;;;;;18.18;100.00;94945.19;5093530;28;20207;-59
2022/11/21 04:49:11;;;;;;;30.93;7.30;;;;;;;18.18;100.00;99605.78;5093210;28;20188;-60
2022/11/21 04:51:38;;;;;;;36.93;7.43;;;;;;;18.26;100.00;98953.88;5093394;28;20650;-59
2022/11/21 04:54:05;;;;;;;30.73;7.23;;;;;;;18.20;100.00;98277.72;5093403;28;20184;-59
2022/11/21 04:56:32;;;;;;;43.07;7.33;;;;;;;18.25;100.00;104285.91;5093118;28;20184;-60
2022/11/21 04:59:01;;;;;;;41.20;7.67;;;;;;;18.29;100.00;104625.72;5093303;28;20191;-59
2022/11/21 05:01:27;;;;;;;38.90;8.00;;;;;;;18.19;100.00;98942.13;5093285;28;20184;-60
2022/11/21 05:03:54;;;;;;;37.20;7.83;;;;;;;18.32;100.00;102628.69;5093121;28;20204;-58
2022/11/21 05:06:21;;;;;;;49.13;8.67;;;;;;;18.21;100.00;102611.28;5093220;28;20565;-59
2022/11/21 05:08:48;;;;;;;39.57;7.73;;;;;;;18.20;100.00;98942.97;5093126;28;20207;-59
2022/11/21 05:14:01;;;;;;;27.13;7.27;;;;;;;18.32;100.00;109974.06;5092749;28;20175;-59
2022/11/21 05:16:28;;;;;;;43.60;7.77;;;;;;;18.33;100.00;109641.69;5092960;28;20692;-59
2022/11/21 05:18:55;;;;;;;43.87;7.77;;;;;;;18.32;100.00;119342.91;5092841;28;20631;-61
2022/11/21 05:21:21;;;;;;;49.43;7.57;;;;;;;18.37;100.00;123377.69;5092569;28;20228;-59
2022/11/21 05:23:48;;;;;;;40.47;7.13;;;;;;;18.42;100.00;124729.38;5092471;28;20190;-59
2022/11/21 05:26:15;;;;;;;46.03;7.73;;;;;;;18.43;100.00;126075.44;5092508;28;20196;-59
2022/11/21 05:28:42;;;;;;;32.90;8.30;;;;;;;18.42;100.00;121040.19;5092496;28;20191;-59
2022/11/21 05:31:11;;;;;;;39.00;7.80;;;;;;;18.38;100.00;145783.72;5091599;28;20664;-59
2022/11/21 05:33:38;;;;;;;33.17;7.47;;;;;;;18.48;100.00;150682.94;5092335;28;20595;-60
2022/11/21 05:36:05;;;;;;;34.37;6.57;;;;;;;18.54;100.00;150698.22;5092697;28;20198;-61
2022/11/21 05:38:32;;;;;;;35.87;6.27;;;;;;;18.66;100.00;150728.78;5092152;28;20293;-59
2022/11/21 05:40:59;;;;;;;41.87;7.57;;;;;;;18.79;100.00;150760.56;5092071;28;20188;-59
2022/11/21 05:46:12;;;;;;;31.90;5.80;;;;;;;18.90;100.00;150787.25;5092259;28;20187;-59
2022/11/21 05:48:39;;;;;;;17.27;5.50;;;;;;;18.98;100.00;150808.88;5092129;28;20188;-58
2022/11/21 05:51:06;;;;;;;31.53;6.27;;;;;;;18.98;100.00;150807.63;5092373;28;20267;-59
2022/11/21 05:53:34;;;;;;;29.67;6.07;;;;;;;19.08;100.00;150833.06;5092352;28;20198;-60
2022/11/21 05:56:03;;;;;;;27.60;5.77;;;;;;;19.16;100.00;150853.44;5092612;28;20189;-58
2022/11/21 05:58:30;;;;;;;33.63;4.93;;;;;;;19.25;100.00;150876.34;5091939;28;20187;-58
2022/11/21 06:00:58;;;;;;;38.63;5.90;;;;;;;19.35;100.00;150901.75;5092247;28;20188;-61
2022/11/21 06:03:25;;;;;;;33.27;5.83;;;;;;;19.32;100.00;150894.13;5092311;28;20653;-59
2022/11/21 06:05:53;;;;;;;36.00;5.73;;;;;;;19.41;100.00;150917.03;5092033;28;20550;-58
2022/11/21 06:08:19;;;;;;;28.40;5.53;;;;;;;19.50;100.00;150940.00;5091784;28;20180;-60
2022/11/21 06:10:46;;;;;;;21.83;5.60;;;;;;;19.61;100.00;150968.00;5091782;28;20188;-59
2022/11/21 06:13:21;;;;;;;39.23;5.47;;;;;;;19.71;100.00;150990.91;5091686;28;20180;-59
2022/11/21 06:15:53;;;;;;;42.70;6.10;;;;;;;19.65;100.00;150976.88;5091938;28;20573;-59
2022/11/21 06:18:21;;;;;;;36.67;6.07;;;;;;;19.73;100.00;150997.25;5091599;28;20184;-59
2022/11/21 06:20:49;;;;;;;33.60;5.70;;;;;;;19.71;100.00;150990.91;5091634;28;20271;-58
2022/11/21 06:23:16;;;;;;;33.07;5.77;;;;;;;19.06;100.00;150827.97;5091735;28;20192;-59
2022/11/21 06:25:43;;;;;;;39.40;6.37;;;;;;;18.16;100.00;128032.31;5091888;28;20657;-58
2022/11/21 06:28:11;;;;;;;30.80;6.40;;;;;;;17.41;100.00;42396.06;5091580;28;20186;-59
2022/11/21 06:30:38;;;;;;;36.07;6.73;;;;;;;17.03;100.00;18582.13;5091663;28;20187;-60
2022/11/21 06:33:06;;;;;;;35.97;6.53;;;;;;;16.68;100.00;2384.81;5091375;28;20243;-59
2022/11/21 06:35:36;;;;;;;35.07;6.27;;;;;;;16.44;100.00;1414.47;5091698;28;20188;-59
2022/11/21 06:38:05;;;;;;;22.60;5.87;;;;;;;16.32;100.00;-4388.56;5090130;28;20194;-60
2022/11/21 06:40:32;;;;;;;44.40;6.90;;;;;;;16.49;100.00;-5033.06;5091216;28;20180;-59
2022/11/21 06:42:59;;;;;;;23.60;5.47;;;;;;;16.68;100.00;-6644.06;5091601;28;20690;-59
2022/11/21 06:45:25;;;;;;;20.03;5.23;;;;;;;16.83;100.00;-4067.06;5091511;28;20212;-59
2022/11/21 06:47:52;;;;;;;25.47;5.93;;;;;;;16.82;100.00;-1164.72;5091370;28;20227;-59
2022/11/21 06:50:19;;;;;;;22.33;5.10;;;;;;;16.99;100.00;4649.94;5091670;28;20542;-59
2022/11/21 06:52:47;;;;;;;24.97;5.57;;;;;;;17.03;100.00;7885.03;5091841;28;20184;-59
2022/11/21 06:55:15;;;;;;;21.70;4.87;;;;;;;17.18;100.00;16314.97;5095467;28;20657;-58
2022/11/21 06:57:42;;;;;;;18.40;5.30;;;;;;;17.30;100.00;16318.78;5095342;28;20188;-59
2022/11/21 07:00:10;;;;;;;20.67;5.80;;;;;;;17.34;100.00;20542.59;5095110;28;20215;-59
2022/11/21 07:02:37;;;;;;;21.57;5.33;;;;;;;17.33;100.00;19892.22;5095146;28;20300;-60
2022/11/21 07:05:04;;;;;;;37.60;6.37;;;;;;;17.49;100.00;24451.75;5094623;28;20210;-58
2022/11/21 07:07:31;;;;;;;19.43;5.13;;;;;;;17.54;100.00;27059.38;5094710;28;20264;-59
2022/11/21 07:09:58;;;;;;;22.77;5.23;;;;;;;17.58;100.00;29016.69;5094768;28;20279;-58
2022/11/21 07:15:11;;;;;;;22.77;5.67;;;;;;;17.66;100.00;31956.13;5094779;28;20680;-59
2022/11/21 07:17:38;;;;;;;30.27;5.77;;;;;;;17.72;100.00;31959.88;5094550;28;20192;-58
2022/11/21 07:20:06;;;;;;;23.30;5.67;;;;;;;17.70;100.00;38491.75;5094921;28;20550;-58
2022/11/21 07:22:33;;;;;;;20.50;5.57;;;;;;;17.85;100.00;39810.09;5094871;28;20685;-59
2022/11/21 07:25:00;;;;;;;17.77;4.80;;;;;;;17.87;100.00;42430.00;5094593;28;20207;-58
2022/11/21 07:27:39;;;;;;;18.00;5.00;;;;;;;17.84;100.00;42427.38;5095113;28;20220;-58
2022/11/21 07:30:10;;;;;;;20.57;5.23;;;;;;;17.86;100.00;48983.91;5094815;28;20625;-59
2022/11/21 07:32:37;;;;;;;15.27;5.27;;;;;;;17.82;100.00;48652.91;5094372;28;20677;-59
2022/11/21 07:35:05;;;;;;;19.03;4.67;;;;;;;17.89;100.00;51612.19;5094348;28;20180;-59
2022/11/21 07:37:32;;;;;;;17.17;4.60;;;;;;;17.91;100.00;46364.44;5094656;28;20271;-59
2022/11/21 07:39:59;;;;;;;16.63;4.60;;;;;;;17.94;100.00;53258.91;5094607;28;20267;-58
2022/11/21 07:42:26;;;;;;;33.30;5.43;;;;;;;17.96;100.00;53261.22;5094475;28;20631;-57
2022/11/21 07:44:54;;;;;;;15.97;5.37;;;;;;;17.95;100.00;46367.66;5094157;28;20204;-59
2022/11/21 07:47:21;;;;;;;15.57;4.30;;;;;;;17.84;100.00;52921.22;5093070;28;20293;-59
2022/11/21 07:49:50;;;;;;;15.50;4.20;;;;;;;18.06;100.00;53269.97;5093314;28;20195;-59
2022/11/21 07:52:17;;;;;;;26.37;4.93;;;;;;;18.29;100.00;61519.09;5094066;28;20188;-59
2022/11/21 07:54:44;;;;;;;24.43;5.07;;;;;;;18.52;100.00;69133.03;5085339;28;20197;-59
2022/11/21 07:57:13;;;;;;;24.23;4.80;;;;;;;19.31;100.00;91794.38;5073950;28;20635;-59
2022/11/21 07:59:40;;;;;;;20.37;4.43;;;;;;;20.59;100.00;151212.47;5073304;28;20188;-60
2022/11/21 08:02:17;;;;;;;15.00;3.93;;;;;;;21.85;100.00;151531.09;5081564;28;20241;-60
2022/11/21 08:04:44;;;;;;;26.33;4.60;;;;;;;22.87;100.00;151788.78;5093872;28;20219;-60
2022/11/21 08:07:10;;;;;;;12.23;3.67;;;;;;;24.18;100.00;152119.41;5093244;28;20184;-61
2022/11/21 08:09:38;;;;;;;19.02;3.70;;;;;;;25.47;100.00;152445.13;5093951;28;20295;-62
2022/11/21 08:12:05;;;;;;;13.85;4.20;;;;;;;25.44;100.00;152438.78;5093688;28;20186;-61
2022/11/21 08:14:33;;;;;;;20.02;3.95;;;;;;;25.46;100.00;152443.84;5093772;28;20230;-61
2022/11/21 08:17:00;;;;;;;11.68;3.78;;;;;;;25.44;100.00;152437.50;5093572;28;20220;-61
2022/11/21 08:19:28;;;;;;;17.02;3.60;;;;;;;24.73;100.00;152257.31;5094109;28;20192;-60
2022/11/21 08:21:55;;;;;;;12.70;3.80;;;;;;;23.32;100.00;151901.03;5093769;28;20210;-60
2022/11/21 08:24:22;;;;;;;15.30;3.45;;;;;;;22.76;100.00;151761.97;5093651;28;20184;-60
2022/11/21 08:26:49;;;;;;;14.18;3.55;;;;;;;22.23;100.00;151628.06;5087491;28;20699;-59
2022/11/21 08:29:16;;;;;;;15.85;3.53;;;;;;;21.93;100.00;151551.53;5087982;28;20206;-57
2022/11/21 08:31:44;;;;;;;11.20;2.83;;;;;;;21.47;100.00;151434.25;5093138;28;20195;-57
2022/11/21 08:34:11;;;;;;;15.47;3.63;;;;;;;20.77;100.00;151258.34;5093020;28;20714;-58
2022/11/21 08:36:40;;;;;;;14.73;3.00;;;;;;;21.62;100.00;151472.44;5093518;28;20208;-58
2022/11/21 08:39:07;;;;;;;14.80;3.20;;;;;;;22.59;100.00;151717.28;5093150;28;20195;-58
2022/11/21 08:44:34;;;;;;;15.52;3.08;;;;;;;24.83;100.00;152284.13;5010909;28;20646;-58
2022/11/21 08:47:02;;;;;;;9.57;3.63;;;;;;;24.69;100.00;152247.09;5010898;28;20646;-59
2022/11/21 08:49:30;;;;;;;15.98;4.15;;;;;;;25.40;100.00;152427.25;5039280;28;20300;-59
2022/11/21 08:52:01;;;;;;;15.10;3.88;;;;;;;25.56;100.00;152466.91;5072917;28;20264;-58
2022/11/21 08:54:28;;;;;;;19.20;4.05;;;;;;;25.40;100.00;152427.25;5073002;28;20207;-59
2022/11/21 08:56:55;;;;;;;15.40;4.18;;;;;;;25.37;100.00;152419.63;5084717;28;20224;-58
2022/11/21 08:59:21;;;;;;;19.10;4.60;;;;;;;24.57;100.00;152218.97;5092611;28;20194;-58
2022/11/21 09:01:51;;;;;;;22.15;4.72;;;;;;;23.71;100.00;151999.38;5093108;28;20188;-58
2022/11/21 09:04:18;;;;;;;21.15;4.85;;;;;;;23.69;100.00;151995.50;5092702;28;20278;-59
2022/11/21 09:06:45;;;;;;;32.78;5.47;;;;;;;24.60;100.00;152224.09;5092394;28;20208;-58
2022/11/21 09:09:13;;;;;;;21.08;4.93;;;;;;;25.60;100.00;152477.13;5093053;28;20218;-58
2022/11/21 09:11:40;;;;;;;19.38;4.35;;;;;;;25.22;100.00;152381.25;5092970;28;20187;-58
2022/11/21 09:19:36;;;;;;;16.83;4.10;;;;;;;28.45;98.98;153200.03;5091069;28;20190;-58
2022/11/21 09:22:03;;;;;;;18.55;3.97;;;;;;;27.35;100.00;152919.66;5072701;28;20265;-57
2022/11/21 09:24:31;;;;;;;18.98;4.45;;;;;;;27.05;100.00;152844.19;5072177;28;20181;-58
2022/11/21 09:26:59;;;;;;;34.13;6.07;;;;;;;27.30;100.00;152908.13;5072274;28;20219;-58
2022/11/21 09:29:26;;;;;;;13.82;4.30;;;;;;;27.07;100.00;152850.59;5071913;28;20195;-58
2022/11/21 09:31:53;;;;;;;16.60;4.00;;;;;;;26.62;100.00;152735.41;5071995;28;20282;-58
2022/11/21 09:34:20;;;;;;;18.23;4.70;;;;;;;26.16;100.00;152619.03;5072130;28;20189;-59
2022/11/21 09:36:51;;;;;;;17.77;5.32;;;;;;;24.89;100.00;152299.50;5090275;28;20720;-59
2022/11/21 09:39:19;;;;;;;25.95;5.43;;;;;;;24.31;100.00;152151.34;5072319;28;20713;-58
2022/11/21 09:42:01;;;;;;;18.23;4.25;;;;;;;24.12;100.00;152105.31;5071492;28;20195;-58
2022/11/21 09:44:46;;;;;;;25.67;5.50;;;;;;;23.86;100.00;152038.91;5072003;28;20191;-58
2022/11/21 09:47:22;;;;;;;15.50;4.05;;;;;;;22.96;100.00;151810.44;5074742;28;20230;-58
2022/11/21 09:49:55;;;;;;;22.60;4.90;;;;;;;22.74;100.00;151756.84;5092400;28;20616;-60
2022/11/21 09:52:28;;;;;;;17.60;4.55;;;;;;;21.97;100.00;151561.75;5090730;28;20702;-57
2022/11/21 09:54:59;;;;;;;25.80;4.60;;;;;;;22.01;100.00;151571.94;5079440;28;20257;-57
2022/11/21 09:57:28;;;;;;;21.23;4.83;;;;;;;21.13;100.00;151350.09;5091467;28;20203;-57
2022/11/21 09:59:57;;;;;;;15.90;4.27;;;;;;;21.34;100.00;151403.63;5087910;28;20204;-58
2022/11/21 10:02:25;;;;;;;33.57;6.50;;;;;;;21.10;100.00;151342.41;5092044;28;20200;-58
2022/11/21 10:04:52;;;;;;;27.13;5.43;;;;;;;21.00;100.00;151316.97;5092001;28;20188;-59
2022/11/21 10:07:25;;;;;;;29.37;4.60;;;;;;;21.41;100.00;151420.22;5090519;28;20223;-58
2022/11/21 10:10:16;;;;;;;14.40;4.70;;;;;;;22.33;100.00;151652.25;5091863;28;20180;-59
2022/11/21 10:12:59;;;;;;;25.67;5.40;;;;;;;22.04;100.00;151578.28;5092305;28;20184;-59
2022/11/21 10:15:38;;;;;;;28.33;4.70;;;;;;;22.76;100.00;151760.69;5091756;28;20181;-59
2022/11/21 10:18:51;;;;;;;28.52;4.40;;;;;;;24.47;100.00;152192.19;5091766;28;20180;-59
2022/11/21 10:21:36;;;;;;;25.33;5.28;;;;;;;24.07;100.00;152091.25;5044226;28;20256;-59
2022/11/21 10:24:27;;;;;;;16.02;4.18;;;;;;;23.67;100.00;151990.44;5091345;28;20184;-60
2022/11/21 10:26:56;;;;;;;38.67;5.07;;;;;;;23.09;100.00;151843.59;5091359;28;20203;-60
2022/11/21 10:29:31;;;;;;;30.63;5.53;;;;;;;22.06;100.00;151584.69;5095363;28;20539;-59
2022/11/21 10:32:02;;;;;;;28.17;4.68;;;;;;;21.57;100.00;151460.97;5095717;28;20196;-60
2022/11/21 10:34:34;;;;;;;29.10;5.10;;;;;;;21.17;100.00;151359.06;5096149;28;20597;-59
2022/11/21 10:37:11;;;;;;;23.23;4.90;;;;;;;20.78;100.00;151260.91;5095376;28;20290;-59
2022/11/21 10:39:43;;;;;;;23.77;4.83;;;;;;;20.97;100.00;151309.28;5095588;28;20198;-58
2022/11/21 10:42:18;;;;;;;14.93;5.00;;;;;;;20.84;100.00;151277.44;5094649;28;20238;-60
2022/11/21 10:47:33;;;;;;;40.67;5.93;;;;;;;20.70;100.00;151241.81;5095216;28;20233;-59
2022/11/21 10:50:12;;;;;;;26.23;5.60;;;;;;;20.79;100.00;151264.69;5095354;28;20180;-59
2022/11/21 10:52:45;;;;;;;36.10;6.63;;;;;;;20.79;100.00;151263.47;5095445;28;20187;-59
2022/11/21 10:55:13;;;;;;;33.20;5.97;;;;;;;20.80;100.00;151265.97;5095268;28;20188;-60
2022/11/21 10:57:47;;;;;;;29.57;5.30;;;;;;;20.62;100.00;151221.44;5095131;28;20562;-59
2022/11/21 11:00:20;;;;;;;28.77;5.80;;;;;;;20.69;100.00;151239.25;5095137;28;20185;-61
2022/11/21 11:03:03;;;;;;;31.43;6.07;;;;;;;21.28;100.00;151388.34;5094499;28;20187;-61
2022/11/21 11:05:32;;;;;;;17.07;4.57;;;;;;;21.15;100.00;151353.94;5095032;28;20194;-59
2022/11/21 11:08:01;;;;;;;18.20;5.00;;;;;;;21.10;100.00;151341.13;5095344;28;20260;-59
2022/11/21 11:10:29;;;;;;;24.47;5.67;;;;;;;21.02;100.00;151322.03;5095127;28;20202;-59
2022/11/21 11:15:54;;;;;;;47.27;8.57;;;;;;;20.79;100.00;151263.47;5094950;28;20183;-59
2022/11/21 11:18:23;;;;;;;28.53;6.17;;;;;;;20.04;100.00;151076.19;5095371;28;20272;-59
2022/11/21 11:20:50;;;;;;;33.47;5.87;;;;;;;19.09;100.00;132606.63;5094738;28;20192;-60
2022/11/21 11:23:24;;;;;;;28.83;6.63;;;;;;;18.73;100.00;60575.56;5094898;28;20188;-59
2022/11/21 11:25:53;;;;;;;26.93;5.80;;;;;;;18.35;100.00;28077.44;5094960;28;20681;-59
2022/11/21 11:28:20;;;;;;;25.10;5.83;;;;;;;18.57;100.00;21241.41;5093312;28;20187;-59
2022/11/21 11:30:50;;;;;;;22.40;5.47;;;;;;;18.76;100.00;23856.50;5094468;28;20195;-59
2022/11/21 11:33:36;;;;;;;21.17;4.97;;;;;;;19.00;100.00;32032.59;5094255;28;20318;-59
2022/11/21 11:36:11;;;;;;;24.90;5.77;;;;;;;19.11;100.00;37931.13;5094194;28;20226;-59
2022/11/21 11:38:44;;;;;;;22.83;5.03;;;;;;;19.17;100.00;48766.13;5093921;28;20195;-59
2022/11/21 11:41:23;;;;;;;19.93;5.50;;;;;;;19.35;100.00;50096.97;5094343;28;20196;-59
2022/11/21 11:52:39;;;;;;;28.67;5.33;;;;;;;20.05;100.00;91574.78;5094125;28;20172;-59